sensor_id;sensor_type;location;lat;lon;timestamp;P1;durP1;ratioP1;P2;durP2;ratioP2
37781;SDS011;23621;50.878;4.584;2022-07-29T00:00:40;3.55;;;2.00;;
37781;SDS011;23621;50.878;4.584;2022-07-29T00:03:05;4.22;;;2.20;;
37781;SDS011;23621;50.878;4.584;2022-07-29T00:05:31;2.92;;;1.90;;
37781;SDS011;23621;50.878;4.584;2022-07-29T00:07:57;2.97;;;2.03;;
37781;SDS011;23621;50.878;4.584;2022-07-29T00:10:22;4.47;;;2.50;;
37781;SDS011;23621;50.878;4.584;2022-07-29T00:12:48;2.60;;;2.35;;
37781;SDS011;23621;50.878;4.584;2022-07-29T00:15:14;3.10;;;1.90;;
37781;SDS011;23621;50.878;4.584;2022-07-29T00:17:40;4.57;;;2.08;;
37781;SDS011;23621;50.878;4.584;2022-07-29T00:20:06;3.40;;;1.85;;
37781;SDS011;23621;50.878;4.584;2022-07-29T00:22:32;3.25;;;2.22;;
37781;SDS011;23621;50.878;4.584;2022-07-29T00:24:58;3.17;;;1.90;;
37781;SDS011;23621;50.878;4.584;2022-07-29T00:27:23;2.30;;;2.08;;
37781;SDS011;23621;50.878;4.584;2022-07-29T00:29:49;3.97;;;1.90;;
37781;SDS011;23621;50.878;4.584;2022-07-29T00:32:15;1.95;;;1.85;;
37781;SDS011;23621;50.878;4.584;2022-07-29T00:34:40;3.05;;;2.20;;
37781;SDS011;23621;50.878;4.584;2022-07-29T00:37:25;3.10;;;2.40;;
37781;SDS011;23621;50.878;4.584;2022-07-29T00:39:51;3.33;;;2.47;;
37781;SDS011;23621;50.878;4.584;2022-07-29T00:42:17;2.20;;;2.00;;
37781;SDS011;23621;50.878;4.584;2022-07-29T00:44:42;4.13;;;2.10;;
37781;SDS011;23621;50.878;4.584;2022-07-29T00:47:09;2.67;;;2.22;;
37781;SDS011;23621;50.878;4.584;2022-07-29T00:49:36;2.90;;;2.05;;
37781;SDS011;23621;50.878;4.584;2022-07-29T00:52:04;5.38;;;2.65;;
37781;SDS011;23621;50.878;4.584;2022-07-29T00:54:30;3.90;;;2.10;;
37781;SDS011;23621;50.878;4.584;2022-07-29T00:56:57;5.45;;;2.17;;
37781;SDS011;23621;50.878;4.584;2022-07-29T00:59:23;4.38;;;2.30;;
37781;SDS011;23621;50.878;4.584;2022-07-29T01:01:50;2.53;;;2.30;;
37781;SDS011;23621;50.878;4.584;2022-07-29T01:04:16;3.28;;;2.20;;
37781;SDS011;23621;50.878;4.584;2022-07-29T01:06:42;4.07;;;2.22;;
37781;SDS011;23621;50.878;4.584;2022-07-29T01:09:07;3.38;;;2.08;;
37781;SDS011;23621;50.878;4.584;2022-07-29T01:11:34;3.72;;;2.17;;
37781;SDS011;23621;50.878;4.584;2022-07-29T01:14:00;2.70;;;2.10;;
37781;SDS011;23621;50.878;4.584;2022-07-29T01:16:30;4.85;;;2.60;;
37781;SDS011;23621;50.878;4.584;2022-07-29T01:19:00;3.67;;;2.30;;
37781;SDS011;23621;50.878;4.584;2022-07-29T01:21:55;3.95;;;2.80;;
37781;SDS011;23621;50.878;4.584;2022-07-29T01:29:27;4.45;;;2.78;;
37781;SDS011;23621;50.878;4.584;2022-07-29T01:32:02;14.27;;;2.60;;
37781;SDS011;23621;50.878;4.584;2022-07-29T01:35:00;2.42;;;2.10;;
37781;SDS011;23621;50.878;4.584;2022-07-29T01:37:36;3.95;;;2.38;;
37781;SDS011;23621;50.878;4.584;2022-07-29T01:40:03;3.15;;;2.83;;
37781;SDS011;23621;50.878;4.584;2022-07-29T01:42:36;4.50;;;2.45;;
37781;SDS011;23621;50.878;4.584;2022-07-29T01:48:18;3.53;;;2.20;;
37781;SDS011;23621;50.878;4.584;2022-07-29T01:50:18;3.83;;;2.42;;
37781;SDS011;23621;50.878;4.584;2022-07-29T01:53:07;2.22;;;2.03;;
37781;SDS011;23621;50.878;4.584;2022-07-29T01:55:36;3.80;;;2.75;;
37781;SDS011;23621;50.878;4.584;2022-07-29T01:58:05;2.58;;;2.38;;
37781;SDS011;23621;50.878;4.584;2022-07-29T02:00:33;2.20;;;2.00;;
37781;SDS011;23621;50.878;4.584;2022-07-29T02:03:00;3.05;;;2.28;;
37781;SDS011;23621;50.878;4.584;2022-07-29T02:05:30;3.78;;;2.30;;
37781;SDS011;23621;50.878;4.584;2022-07-29T02:07:58;3.67;;;2.60;;
37781;SDS011;23621;50.878;4.584;2022-07-29T02:10:27;2.60;;;2.38;;
37781;SDS011;23621;50.878;4.584;2022-07-29T02:12:56;3.33;;;2.33;;
37781;SDS011;23621;50.878;4.584;2022-07-29T02:15:24;2.90;;;2.30;;
37781;SDS011;23621;50.878;4.584;2022-07-29T02:17:58;4.38;;;2.38;;
37781;SDS011;23621;50.878;4.584;2022-07-29T02:20:28;4.30;;;2.20;;
37781;SDS011;23621;50.878;4.584;2022-07-29T02:22:55;3.55;;;2.40;;
37781;SDS011;23621;50.878;4.584;2022-07-29T02:25:24;5.47;;;2.60;;
37781;SDS011;23621;50.878;4.584;2022-07-29T02:27:51;4.07;;;2.70;;
37781;SDS011;23621;50.878;4.584;2022-07-29T02:30:18;4.43;;;2.63;;
37781;SDS011;23621;50.878;4.584;2022-07-29T02:32:46;3.45;;;2.53;;
37781;SDS011;23621;50.878;4.584;2022-07-29T02:35:14;4.05;;;2.30;;
37781;SDS011;23621;50.878;4.584;2022-07-29T02:37:41;3.17;;;2.50;;
37781;SDS011;23621;50.878;4.584;2022-07-29T02:40:09;2.97;;;2.20;;
37781;SDS011;23621;50.878;4.584;2022-07-29T02:42:39;3.55;;;2.30;;
37781;SDS011;23621;50.878;4.584;2022-07-29T02:45:07;3.13;;;2.10;;
37781;SDS011;23621;50.878;4.584;2022-07-29T02:50:06;3.88;;;2.58;;
37781;SDS011;23621;50.878;4.584;2022-07-29T02:52:40;3.70;;;2.50;;
37781;SDS011;23621;50.878;4.584;2022-07-29T02:57:59;3.65;;;2.30;;
37781;SDS011;23621;50.878;4.584;2022-07-29T03:00:28;4.43;;;2.40;;
37781;SDS011;23621;50.878;4.584;2022-07-29T03:02:58;3.35;;;2.42;;
37781;SDS011;23621;50.878;4.584;2022-07-29T03:05:24;4.15;;;2.47;;
37781;SDS011;23621;50.878;4.584;2022-07-29T03:08:01;3.05;;;2.17;;
37781;SDS011;23621;50.878;4.584;2022-07-29T03:10:30;6.15;;;2.67;;
37781;SDS011;23621;50.878;4.584;2022-07-29T03:12:56;3.60;;;2.50;;
37781;SDS011;23621;50.878;4.584;2022-07-29T03:15:23;2.50;;;2.30;;
37781;SDS011;23621;50.878;4.584;2022-07-29T03:17:50;2.60;;;2.38;;
37781;SDS011;23621;50.878;4.584;2022-07-29T03:20:17;3.50;;;2.45;;
37781;SDS011;23621;50.878;4.584;2022-07-29T03:22:44;3.58;;;2.35;;
37781;SDS011;23621;50.878;4.584;2022-07-29T03:25:12;3.30;;;2.58;;
37781;SDS011;23621;50.878;4.584;2022-07-29T03:27:42;4.75;;;2.40;;
37781;SDS011;23621;50.878;4.584;2022-07-29T03:30:09;2.60;;;2.20;;
37781;SDS011;23621;50.878;4.584;2022-07-29T03:32:36;4.00;;;3.15;;
37781;SDS011;23621;50.878;4.584;2022-07-29T03:35:02;3.38;;;2.50;;
37781;SDS011;23621;50.878;4.584;2022-07-29T03:37:28;2.95;;;2.30;;
37781;SDS011;23621;50.878;4.584;2022-07-29T03:39:55;4.03;;;2.72;;
37781;SDS011;23621;50.878;4.584;2022-07-29T03:42:28;2.63;;;2.33;;
37781;SDS011;23621;50.878;4.584;2022-07-29T03:44:58;3.15;;;2.30;;
37781;SDS011;23621;50.878;4.584;2022-07-29T03:47:28;3.42;;;2.70;;
37781;SDS011;23621;50.878;4.584;2022-07-29T03:49:57;3.45;;;2.60;;
37781;SDS011;23621;50.878;4.584;2022-07-29T03:52:27;3.65;;;2.65;;
37781;SDS011;23621;50.878;4.584;2022-07-29T03:54:53;3.50;;;2.63;;
37781;SDS011;23621;50.878;4.584;2022-07-29T03:57:20;3.80;;;2.40;;
37781;SDS011;23621;50.878;4.584;2022-07-29T03:59:50;3.17;;;2.50;;
37781;SDS011;23621;50.878;4.584;2022-07-29T04:02:17;3.28;;;2.40;;
37781;SDS011;23621;50.878;4.584;2022-07-29T04:04:43;4.95;;;2.60;;
37781;SDS011;23621;50.878;4.584;2022-07-29T04:07:12;3.13;;;2.30;;
37781;SDS011;23621;50.878;4.584;2022-07-29T04:09:39;2.42;;;2.22;;
37781;SDS011;23621;50.878;4.584;2022-07-29T04:12:05;2.47;;;2.28;;
37781;SDS011;23621;50.878;4.584;2022-07-29T04:14:31;2.97;;;2.75;;
37781;SDS011;23621;50.878;4.584;2022-07-29T04:16:57;4.05;;;2.70;;
37781;SDS011;23621;50.878;4.584;2022-07-29T04:19:23;2.92;;;2.67;;
37781;SDS011;23621;50.878;4.584;2022-07-29T04:21:49;3.80;;;2.80;;
37781;SDS011;23621;50.878;4.584;2022-07-29T04:24:14;3.95;;;3.00;;
37781;SDS011;23621;50.878;4.584;2022-07-29T04:26:40;3.25;;;2.40;;
37781;SDS011;23621;50.878;4.584;2022-07-29T04:29:07;6.13;;;2.88;;
37781;SDS011;23621;50.878;4.584;2022-07-29T04:31:32;5.68;;;2.70;;
37781;SDS011;23621;50.878;4.584;2022-07-29T04:33:58;4.10;;;2.33;;
37781;SDS011;23621;50.878;4.584;2022-07-29T04:36:24;3.05;;;2.53;;
37781;SDS011;23621;50.878;4.584;2022-07-29T04:38:49;2.70;;;2.50;;
37781;SDS011;23621;50.878;4.584;2022-07-29T04:41:15;2.53;;;2.33;;
37781;SDS011;23621;50.878;4.584;2022-07-29T04:43:41;3.13;;;2.70;;
37781;SDS011;23621;50.878;4.584;2022-07-29T04:46:06;3.00;;;2.78;;
37781;SDS011;23621;50.878;4.584;2022-07-29T04:48:32;3.65;;;2.63;;
37781;SDS011;23621;50.878;4.584;2022-07-29T04:50:58;3.50;;;2.53;;
37781;SDS011;23621;50.878;4.584;2022-07-29T04:53:24;3.03;;;2.65;;
37781;SDS011;23621;50.878;4.584;2022-07-29T04:55:49;3.13;;;2.85;;
37781;SDS011;23621;50.878;4.584;2022-07-29T04:58:15;5.07;;;2.97;;
37781;SDS011;23621;50.878;4.584;2022-07-29T05:00:41;2.70;;;2.50;;
37781;SDS011;23621;50.878;4.584;2022-07-29T05:03:07;5.15;;;2.60;;
37781;SDS011;23621;50.878;4.584;2022-07-29T05:05:32;5.50;;;3.03;;
37781;SDS011;23621;50.878;4.584;2022-07-29T05:07:58;4.30;;;2.92;;
37781;SDS011;23621;50.878;4.584;2022-07-29T05:10:24;3.42;;;3.10;;
37781;SDS011;23621;50.878;4.584;2022-07-29T05:12:50;2.83;;;2.63;;
37781;SDS011;23621;50.878;4.584;2022-07-29T05:15:15;3.17;;;2.88;;
37781;SDS011;23621;50.878;4.584;2022-07-29T05:17:43;3.28;;;2.65;;
37781;SDS011;23621;50.878;4.584;2022-07-29T05:20:09;3.95;;;2.67;;
37781;SDS011;23621;50.878;4.584;2022-07-29T05:22:35;2.92;;;2.72;;
37781;SDS011;23621;50.878;4.584;2022-07-29T05:25:01;4.63;;;2.67;;
37781;SDS011;23621;50.878;4.584;2022-07-29T05:27:27;4.38;;;3.10;;
37781;SDS011;23621;50.878;4.584;2022-07-29T05:29:53;3.55;;;3.22;;
37781;SDS011;23621;50.878;4.584;2022-07-29T05:32:19;3.88;;;3.00;;
37781;SDS011;23621;50.878;4.584;2022-07-29T05:34:44;4.35;;;3.13;;
37781;SDS011;23621;50.878;4.584;2022-07-29T05:37:10;3.20;;;2.95;;
37781;SDS011;23621;50.878;4.584;2022-07-29T05:39:38;5.22;;;3.22;;
37781;SDS011;23621;50.878;4.584;2022-07-29T05:42:07;3.72;;;3.25;;
37781;SDS011;23621;50.878;4.584;2022-07-29T05:44:37;3.40;;;3.08;;
37781;SDS011;23621;50.878;4.584;2022-07-29T05:47:03;3.45;;;3.13;;
37781;SDS011;23621;50.878;4.584;2022-07-29T05:49:29;3.67;;;3.33;;
37781;SDS011;23621;50.878;4.584;2022-07-29T05:51:54;3.97;;;3.40;;
37781;SDS011;23621;50.878;4.584;2022-07-29T05:54:20;4.25;;;3.60;;
37781;SDS011;23621;50.878;4.584;2022-07-29T05:56:46;3.95;;;3.55;;
37781;SDS011;23621;50.878;4.584;2022-07-29T05:59:11;5.18;;;3.75;;
37781;SDS011;23621;50.878;4.584;2022-07-29T06:01:37;4.50;;;3.45;;
37781;SDS011;23621;50.878;4.584;2022-07-29T06:04:04;4.00;;;3.38;;
37781;SDS011;23621;50.878;4.584;2022-07-29T06:06:32;3.70;;;3.40;;
37781;SDS011;23621;50.878;4.584;2022-07-29T06:08:59;4.10;;;3.80;;
37781;SDS011;23621;50.878;4.584;2022-07-29T06:11:25;4.32;;;3.90;;
37781;SDS011;23621;50.878;4.584;2022-07-29T06:13:51;3.70;;;3.40;;
37781;SDS011;23621;50.878;4.584;2022-07-29T06:16:16;4.43;;;3.58;;
37781;SDS011;23621;50.878;4.584;2022-07-29T06:18:42;4.13;;;3.80;;
37781;SDS011;23621;50.878;4.584;2022-07-29T06:21:08;4.38;;;3.85;;
37781;SDS011;23621;50.878;4.584;2022-07-29T06:23:35;4.20;;;3.50;;
37781;SDS011;23621;50.878;4.584;2022-07-29T06:26:04;4.55;;;4.10;;
37781;SDS011;23621;50.878;4.584;2022-07-29T06:28:31;6.45;;;4.25;;
37781;SDS011;23621;50.878;4.584;2022-07-29T06:30:58;4.30;;;3.72;;
37781;SDS011;23621;50.878;4.584;2022-07-29T06:33:24;4.78;;;4.20;;
37781;SDS011;23621;50.878;4.584;2022-07-29T06:35:49;4.68;;;4.18;;
37781;SDS011;23621;50.878;4.584;2022-07-29T06:38:15;6.63;;;4.47;;
37781;SDS011;23621;50.878;4.584;2022-07-29T06:40:42;5.63;;;4.15;;
37781;SDS011;23621;50.878;4.584;2022-07-29T06:43:46;5.65;;;4.40;;
37781;SDS011;23621;50.878;4.584;2022-07-29T06:46:14;5.43;;;4.20;;
37781;SDS011;23621;50.878;4.584;2022-07-29T06:48:41;5.60;;;4.00;;
37781;SDS011;23621;50.878;4.584;2022-07-29T06:51:07;6.47;;;4.30;;
37781;SDS011;23621;50.878;4.584;2022-07-29T06:53:34;4.15;;;3.80;;
37781;SDS011;23621;50.878;4.584;2022-07-29T06:56:01;5.05;;;3.92;;
37781;SDS011;23621;50.878;4.584;2022-07-29T06:58:28;5.22;;;3.90;;
37781;SDS011;23621;50.878;4.584;2022-07-29T07:00:54;5.32;;;4.15;;
37781;SDS011;23621;50.878;4.584;2022-07-29T07:03:21;4.80;;;4.18;;
37781;SDS011;23621;50.878;4.584;2022-07-29T07:05:47;4.97;;;4.03;;
37781;SDS011;23621;50.878;4.584;2022-07-29T07:08:14;4.85;;;4.20;;
37781;SDS011;23621;50.878;4.584;2022-07-29T07:10:41;6.45;;;4.03;;
37781;SDS011;23621;50.878;4.584;2022-07-29T07:13:07;10.60;;;4.25;;
37781;SDS011;23621;50.878;4.584;2022-07-29T07:15:32;6.22;;;4.07;;
37781;SDS011;23621;50.878;4.584;2022-07-29T07:17:58;4.78;;;4.32;;
37781;SDS011;23621;50.878;4.584;2022-07-29T07:20:24;5.68;;;4.13;;
37781;SDS011;23621;50.878;4.584;2022-07-29T07:22:50;4.23;;;3.83;;
37781;SDS011;23621;50.878;4.584;2022-07-29T07:25:16;11.10;;;4.13;;
37781;SDS011;23621;50.878;4.584;2022-07-29T07:27:42;5.63;;;3.58;;
37781;SDS011;23621;50.878;4.584;2022-07-29T07:30:12;12.57;;;4.60;;
37781;SDS011;23621;50.878;4.584;2022-07-29T07:32:38;17.20;;;4.40;;
37781;SDS011;23621;50.878;4.584;2022-07-29T07:35:05;10.65;;;4.53;;
37781;SDS011;23621;50.878;4.584;2022-07-29T07:37:32;13.98;;;4.28;;
37781;SDS011;23621;50.878;4.584;2022-07-29T07:39:58;4.60;;;3.75;;
37781;SDS011;23621;50.878;4.584;2022-07-29T07:42:24;7.05;;;3.90;;
37781;SDS011;23621;50.878;4.584;2022-07-29T07:44:50;12.38;;;4.35;;
37781;SDS011;23621;50.878;4.584;2022-07-29T07:47:15;11.65;;;4.10;;
37781;SDS011;23621;50.878;4.584;2022-07-29T07:49:45;8.88;;;3.78;;
37781;SDS011;23621;50.878;4.584;2022-07-29T07:52:15;5.00;;;3.75;;
37781;SDS011;23621;50.878;4.584;2022-07-29T07:54:42;4.50;;;3.75;;
37781;SDS011;23621;50.878;4.584;2022-07-29T07:57:09;87.60;;;13.85;;
37781;SDS011;23621;50.878;4.584;2022-07-29T07:59:34;14.65;;;4.97;;
37781;SDS011;23621;50.878;4.584;2022-07-29T08:02:00;4.55;;;3.33;;
37781;SDS011;23621;50.878;4.584;2022-07-29T08:04:26;11.32;;;3.83;;
37781;SDS011;23621;50.878;4.584;2022-07-29T08:06:52;5.90;;;3.60;;
37781;SDS011;23621;50.878;4.584;2022-07-29T08:09:22;4.35;;;3.35;;
37781;SDS011;23621;50.878;4.584;2022-07-29T08:11:48;6.18;;;3.78;;
37781;SDS011;23621;50.878;4.584;2022-07-29T08:14:14;7.20;;;3.63;;
37781;SDS011;23621;50.878;4.584;2022-07-29T08:16:40;5.82;;;3.45;;
37781;SDS011;23621;50.878;4.584;2022-07-29T08:19:07;4.65;;;3.58;;
37781;SDS011;23621;50.878;4.584;2022-07-29T08:21:32;3.30;;;3.00;;
37781;SDS011;23621;50.878;4.584;2022-07-29T08:23:58;3.35;;;3.10;;
37781;SDS011;23621;50.878;4.584;2022-07-29T08:26:42;3.40;;;3.08;;
37781;SDS011;23621;50.878;4.584;2022-07-29T08:29:08;3.70;;;3.30;;
37781;SDS011;23621;50.878;4.584;2022-07-29T08:31:34;4.97;;;3.22;;
37781;SDS011;23621;50.878;4.584;2022-07-29T08:34:01;3.85;;;3.45;;
37781;SDS011;23621;50.878;4.584;2022-07-29T08:36:27;3.38;;;3.10;;
37781;SDS011;23621;50.878;4.584;2022-07-29T08:38:53;5.10;;;2.80;;
37781;SDS011;23621;50.878;4.584;2022-07-29T08:41:19;3.45;;;3.15;;
37781;SDS011;23621;50.878;4.584;2022-07-29T08:43:45;3.75;;;2.78;;
37781;SDS011;23621;50.878;4.584;2022-07-29T08:46:11;3.55;;;3.25;;
37781;SDS011;23621;50.878;4.584;2022-07-29T08:48:37;4.70;;;3.25;;
37781;SDS011;23621;50.878;4.584;2022-07-29T08:51:05;4.32;;;2.95;;
37781;SDS011;23621;50.878;4.584;2022-07-29T08:53:32;8.32;;;3.05;;
37781;SDS011;23621;50.878;4.584;2022-07-29T08:55:59;5.38;;;2.67;;
37781;SDS011;23621;50.878;4.584;2022-07-29T08:58:27;4.38;;;2.40;;
37781;SDS011;23621;50.878;4.584;2022-07-29T09:00:57;3.45;;;2.65;;
37781;SDS011;23621;50.878;4.584;2022-07-29T09:03:29;3.97;;;2.78;;
37781;SDS011;23621;50.878;4.584;2022-07-29T09:05:58;3.72;;;2.40;;
37781;SDS011;23621;50.878;4.584;2022-07-29T09:08:24;2.67;;;2.28;;
37781;SDS011;23621;50.878;4.584;2022-07-29T09:10:50;4.18;;;2.42;;
37781;SDS011;23621;50.878;4.584;2022-07-29T09:13:16;3.03;;;2.40;;
37781;SDS011;23621;50.878;4.584;2022-07-29T09:15:43;2.60;;;2.40;;
37781;SDS011;23621;50.878;4.584;2022-07-29T09:18:09;2.88;;;2.30;;
37781;SDS011;23621;50.878;4.584;2022-07-29T09:20:35;2.75;;;2.55;;
37781;SDS011;23621;50.878;4.584;2022-07-29T09:23:19;4.13;;;2.28;;
37781;SDS011;23621;50.878;4.584;2022-07-29T09:25:45;3.15;;;2.45;;
37781;SDS011;23621;50.878;4.584;2022-07-29T09:28:15;5.28;;;2.70;;
37781;SDS011;23621;50.878;4.584;2022-07-29T09:30:55;4.82;;;2.60;;
37781;SDS011;23621;50.878;4.584;2022-07-29T09:33:23;4.03;;;2.20;;
37781;SDS011;23621;50.878;4.584;2022-07-29T09:36:05;3.38;;;2.33;;
37781;SDS011;23621;50.878;4.584;2022-07-29T09:38:33;2.80;;;2.50;;
37781;SDS011;23621;50.878;4.584;2022-07-29T09:41:01;3.55;;;2.30;;
37781;SDS011;23621;50.878;4.584;2022-07-29T09:43:28;5.13;;;2.30;;
37781;SDS011;23621;50.878;4.584;2022-07-29T09:45:54;3.30;;;2.10;;
37781;SDS011;23621;50.878;4.584;2022-07-29T09:48:21;6.47;;;2.22;;
37781;SDS011;23621;50.878;4.584;2022-07-29T09:50:50;3.78;;;2.10;;
37781;SDS011;23621;50.878;4.584;2022-07-29T09:53:30;3.85;;;1.88;;
37781;SDS011;23621;50.878;4.584;2022-07-29T09:55:57;4.70;;;2.40;;
37781;SDS011;23621;50.878;4.584;2022-07-29T09:58:23;3.90;;;2.17;;
37781;SDS011;23621;50.878;4.584;2022-07-29T10:00:49;2.50;;;2.30;;
37781;SDS011;23621;50.878;4.584;2022-07-29T10:03:16;2.55;;;2.30;;
37781;SDS011;23621;50.878;4.584;2022-07-29T10:05:43;3.13;;;2.53;;
37781;SDS011;23621;50.878;4.584;2022-07-29T10:08:09;3.10;;;2.45;;
37781;SDS011;23621;50.878;4.584;2022-07-29T10:10:38;3.10;;;2.53;;
37781;SDS011;23621;50.878;4.584;2022-07-29T10:13:11;4.50;;;2.47;;
37781;SDS011;23621;50.878;4.584;2022-07-29T10:15:38;3.55;;;2.50;;
37781;SDS011;23621;50.878;4.584;2022-07-29T10:18:06;3.17;;;2.50;;
37781;SDS011;23621;50.878;4.584;2022-07-29T10:20:33;4.30;;;2.60;;
37781;SDS011;23621;50.878;4.584;2022-07-29T10:22:59;5.78;;;2.60;;
37781;SDS011;23621;50.878;4.584;2022-07-29T10:25:25;5.40;;;2.30;;
37781;SDS011;23621;50.878;4.584;2022-07-29T10:27:52;3.45;;;2.30;;
37781;SDS011;23621;50.878;4.584;2022-07-29T10:30:19;7.43;;;2.60;;
37781;SDS011;23621;50.878;4.584;2022-07-29T10:32:58;3.80;;;2.20;;
37781;SDS011;23621;50.878;4.584;2022-07-29T10:41:55;2.25;;;1.92;;
37781;SDS011;23621;50.878;4.584;2022-07-29T10:44:31;2.95;;;2.17;;
37781;SDS011;23621;50.878;4.584;2022-07-29T10:46:58;2.25;;;2.00;;
37781;SDS011;23621;50.878;4.584;2022-07-29T10:49:27;3.90;;;2.30;;
37781;SDS011;23621;50.878;4.584;2022-07-29T10:52:07;3.30;;;2.13;;
37781;SDS011;23621;50.878;4.584;2022-07-29T10:54:38;3.05;;;2.15;;
37781;SDS011;23621;50.878;4.584;2022-07-29T10:57:12;3.17;;;2.55;;
37781;SDS011;23621;50.878;4.584;2022-07-29T10:59:42;3.05;;;2.33;;
37781;SDS011;23621;50.878;4.584;2022-07-29T11:07:23;2.20;;;2.00;;
37781;SDS011;23621;50.878;4.584;2022-07-29T11:15:06;3.38;;;2.15;;
37781;SDS011;23621;50.878;4.584;2022-07-29T11:20:32;3.05;;;2.22;;
37781;SDS011;23621;50.878;4.584;2022-07-29T11:29:08;3.03;;;1.83;;
37781;SDS011;23621;50.878;4.584;2022-07-29T11:31:45;3.30;;;1.92;;
37781;SDS011;23621;50.878;4.584;2022-07-29T11:34:29;2.10;;;1.90;;
37781;SDS011;23621;50.878;4.584;2022-07-29T11:44:59;2.13;;;1.85;;
37781;SDS011;23621;50.878;4.584;2022-07-29T11:47:35;3.90;;;2.28;;
37781;SDS011;23621;50.878;4.584;2022-07-29T11:50:04;3.50;;;2.10;;
37781;SDS011;23621;50.878;4.584;2022-07-29T11:52:35;3.88;;;2.47;;
37781;SDS011;23621;50.878;4.584;2022-07-29T11:55:18;2.35;;;1.98;;
37781;SDS011;23621;50.878;4.584;2022-07-29T12:00:31;4.93;;;1.80;;
37781;SDS011;23621;50.878;4.584;2022-07-29T12:03:00;4.65;;;1.80;;
37781;SDS011;23621;50.878;4.584;2022-07-29T12:05:31;3.05;;;2.00;;
37781;SDS011;23621;50.878;4.584;2022-07-29T12:08:16;2.42;;;2.00;;
37781;SDS011;23621;50.878;4.584;2022-07-29T12:10:47;2.63;;;2.10;;
37781;SDS011;23621;50.878;4.584;2022-07-29T12:13:17;5.28;;;2.17;;
37781;SDS011;23621;50.878;4.584;2022-07-29T12:15:54;4.63;;;1.92;;
37781;SDS011;23621;50.878;4.584;2022-07-29T12:18:22;3.67;;;2.20;;
37781;SDS011;23621;50.878;4.584;2022-07-29T12:20:48;3.47;;;2.03;;
37781;SDS011;23621;50.878;4.584;2022-07-29T12:23:21;4.72;;;2.00;;
37781;SDS011;23621;50.878;4.584;2022-07-29T12:25:46;2.80;;;2.10;;
37781;SDS011;23621;50.878;4.584;2022-07-29T12:28:14;4.38;;;1.90;;
37781;SDS011;23621;50.878;4.584;2022-07-29T12:30:47;2.47;;;2.28;;
37781;SDS011;23621;50.878;4.584;2022-07-29T12:33:20;3.05;;;2.13;;
37781;SDS011;23621;50.878;4.584;2022-07-29T12:35:54;2.22;;;2.00;;
37781;SDS011;23621;50.878;4.584;2022-07-29T12:38:22;3.22;;;1.98;;
37781;SDS011;23621;50.878;4.584;2022-07-29T12:40:49;3.17;;;2.00;;
37781;SDS011;23621;50.878;4.584;2022-07-29T12:43:17;3.22;;;1.90;;
37781;SDS011;23621;50.878;4.584;2022-07-29T12:45:47;4.70;;;1.88;;
37781;SDS011;23621;50.878;4.584;2022-07-29T12:48:32;3.33;;;2.03;;
37781;SDS011;23621;50.878;4.584;2022-07-29T12:51:00;3.70;;;2.40;;
37781;SDS011;23621;50.878;4.584;2022-07-29T12:53:27;5.72;;;2.30;;
37781;SDS011;23621;50.878;4.584;2022-07-29T12:55:54;3.53;;;2.38;;
37781;SDS011;23621;50.878;4.584;2022-07-29T13:01:07;3.95;;;2.05;;
37781;SDS011;23621;50.878;4.584;2022-07-29T13:03:48;3.70;;;2.35;;
37781;SDS011;23621;50.878;4.584;2022-07-29T13:11:30;2.85;;;2.17;;
37781;SDS011;23621;50.878;4.584;2022-07-29T13:13:57;2.47;;;1.73;;
37781;SDS011;23621;50.878;4.584;2022-07-29T13:16:23;3.40;;;2.33;;
37781;SDS011;23621;50.878;4.584;2022-07-29T13:19:02;3.75;;;2.20;;
37781;SDS011;23621;50.878;4.584;2022-07-29T13:21:29;4.53;;;2.55;;
37781;SDS011;23621;50.878;4.584;2022-07-29T13:23:55;3.15;;;2.40;;
37781;SDS011;23621;50.878;4.584;2022-07-29T13:26:20;5.05;;;2.22;;
37781;SDS011;23621;50.878;4.584;2022-07-29T13:28:46;3.67;;;2.25;;
37781;SDS011;23621;50.878;4.584;2022-07-29T13:31:12;3.40;;;2.30;;
37781;SDS011;23621;50.878;4.584;2022-07-29T13:33:37;2.67;;;2.00;;
37781;SDS011;23621;50.878;4.584;2022-07-29T13:36:03;3.90;;;2.25;;
37781;SDS011;23621;50.878;4.584;2022-07-29T13:38:29;3.33;;;2.42;;
37781;SDS011;23621;50.878;4.584;2022-07-29T13:40:54;3.70;;;2.20;;
37781;SDS011;23621;50.878;4.584;2022-07-29T13:43:20;3.97;;;2.95;;
37781;SDS011;23621;50.878;4.584;2022-07-29T13:45:46;2.83;;;2.55;;
37781;SDS011;23621;50.878;4.584;2022-07-29T13:48:11;3.63;;;2.55;;
37781;SDS011;23621;50.878;4.584;2022-07-29T13:50:37;4.40;;;2.53;;
37781;SDS011;23621;50.878;4.584;2022-07-29T13:53:03;4.20;;;3.30;;
37781;SDS011;23621;50.878;4.584;2022-07-29T13:55:29;3.22;;;2.85;;
37781;SDS011;23621;50.878;4.584;2022-07-29T13:57:54;3.80;;;2.97;;
37781;SDS011;23621;50.878;4.584;2022-07-29T14:00:20;6.95;;;3.08;;
37781;SDS011;23621;50.878;4.584;2022-07-29T14:02:46;3.30;;;2.63;;
37781;SDS011;23621;50.878;4.584;2022-07-29T14:05:12;3.53;;;2.70;;
37781;SDS011;23621;50.878;4.584;2022-07-29T14:07:37;3.22;;;2.42;;
37781;SDS011;23621;50.878;4.584;2022-07-29T14:10:06;6.50;;;2.90;;
37781;SDS011;23621;50.878;4.584;2022-07-29T14:12:32;5.38;;;2.72;;
37781;SDS011;23621;50.878;4.584;2022-07-29T14:14:58;6.38;;;2.92;;
37781;SDS011;23621;50.878;4.584;2022-07-29T14:17:24;3.70;;;2.80;;
37781;SDS011;23621;50.878;4.584;2022-07-29T14:19:49;3.85;;;2.67;;
37781;SDS011;23621;50.878;4.584;2022-07-29T14:22:15;4.15;;;2.80;;
37781;SDS011;23621;50.878;4.584;2022-07-29T14:24:44;4.40;;;2.80;;
37781;SDS011;23621;50.878;4.584;2022-07-29T14:27:10;4.25;;;2.53;;
37781;SDS011;23621;50.878;4.584;2022-07-29T14:29:36;5.07;;;3.15;;
37781;SDS011;23621;50.878;4.584;2022-07-29T14:32:03;4.13;;;2.47;;
37781;SDS011;23621;50.878;4.584;2022-07-29T14:34:29;5.22;;;2.75;;
37781;SDS011;23621;50.878;4.584;2022-07-29T14:36:55;4.73;;;2.30;;
37781;SDS011;23621;50.878;4.584;2022-07-29T14:39:24;4.82;;;2.25;;
37781;SDS011;23621;50.878;4.584;2022-07-29T14:41:50;3.67;;;2.38;;
37781;SDS011;23621;50.878;4.584;2022-07-29T14:44:16;2.85;;;2.30;;
37781;SDS011;23621;50.878;4.584;2022-07-29T14:46:43;3.60;;;2.50;;
37781;SDS011;23621;50.878;4.584;2022-07-29T14:49:08;5.65;;;2.30;;
37781;SDS011;23621;50.878;4.584;2022-07-29T14:51:34;4.50;;;2.28;;
37781;SDS011;23621;50.878;4.584;2022-07-29T14:54:01;4.68;;;2.17;;
37781;SDS011;23621;50.878;4.584;2022-07-29T14:56:26;3.33;;;2.10;;
37781;SDS011;23621;50.878;4.584;2022-07-29T14:58:54;3.42;;;2.65;;
37781;SDS011;23621;50.878;4.584;2022-07-29T15:01:21;4.28;;;2.20;;
37781;SDS011;23621;50.878;4.584;2022-07-29T15:03:46;3.78;;;2.13;;
37781;SDS011;23621;50.878;4.584;2022-07-29T15:06:12;2.58;;;2.15;;
37781;SDS011;23621;50.878;4.584;2022-07-29T15:08:38;3.00;;;2.15;;
37781;SDS011;23621;50.878;4.584;2022-07-29T15:11:03;3.85;;;2.03;;
37781;SDS011;23621;50.878;4.584;2022-07-29T15:13:29;3.65;;;2.00;;
37781;SDS011;23621;50.878;4.584;2022-07-29T15:15:55;3.30;;;2.05;;
37781;SDS011;23621;50.878;4.584;2022-07-29T15:18:20;1.85;;;1.75;;
37781;SDS011;23621;50.878;4.584;2022-07-29T15:20:46;4.10;;;2.08;;
37781;SDS011;23621;50.878;4.584;2022-07-29T15:23:12;3.10;;;2.10;;
37781;SDS011;23621;50.878;4.584;2022-07-29T15:25:38;3.60;;;1.80;;
37781;SDS011;23621;50.878;4.584;2022-07-29T15:28:04;3.92;;;2.35;;
37781;SDS011;23621;50.878;4.584;2022-07-29T15:30:33;2.45;;;1.98;;
37781;SDS011;23621;50.878;4.584;2022-07-29T15:33:04;4.05;;;2.13;;
37781;SDS011;23621;50.878;4.584;2022-07-29T15:35:30;2.35;;;2.10;;
37781;SDS011;23621;50.878;4.584;2022-07-29T15:37:57;6.28;;;1.90;;
37781;SDS011;23621;50.878;4.584;2022-07-29T15:40:22;5.68;;;2.13;;
37781;SDS011;23621;50.878;4.584;2022-07-29T15:42:48;3.83;;;1.77;;
37781;SDS011;23621;50.878;4.584;2022-07-29T15:45:13;1.70;;;1.45;;
37781;SDS011;23621;50.878;4.584;2022-07-29T15:47:39;1.70;;;1.60;;
37781;SDS011;23621;50.878;4.584;2022-07-29T15:50:05;2.47;;;1.38;;